W. O. Watson — WDE2805 — position and weather

sailwx.info

Track history (hours):
 
Tides and Currents Weather Stations Pressure Air Temp Water Temp Dewpoint Dewpoint Depression Visibility Wind Speed Wind Dir Waves Ship Positions

W. O. Watson

Owner: Martin Operating Partnership,LP, Vidor, TX. More information available from US FCC via Universal Licensing System and Coast Guard Vessel Documentation Center.

Last reported at 2016-May-24 04:24 UTC. Time now 2016-May-28 04:05 UTC.
Position N 30°23' W 086°56'.

Length 32 m; draft 2.8 m.

MMSI: 367329860.

Date/timePositionNaut miles runAvg speedWind from/ knotsBaromVisibWave heightAir tempDewpointWater temp
2016-May-24 04:24N 30°23' W 086°56'6 7.1
2016-May-24 03:34N 30°24' W 086°50'8 7.1
2016-May-24 02:27N 30°24' W 086°40'6 6.5
2016-May-24 01:33N 30°24' W 086°34'7 6.8
2016-May-24 00:33N 30°26' W 086°26'7 6.7
2016-May-23 23:33N 30°27' W 086°18'7 2.0
2016-May-23 20:05N 30°27' W 086°10'3 5.2
2016-May-23 19:29N 30°26' W 086°14'5 5.8
2016-May-23 18:33N 30°26' W 086°20'6 5.9
2016-May-23 17:33N 30°26' W 086°27'6 5.8
2016-May-23 16:33N 30°24' W 086°33'7 5.9
2016-May-23 15:22N 30°24' W 086°41'5 6.0
2016-May-23 14:33N 30°24' W 086°47'6 6.1
2016-May-23 13:33N 30°24' W 086°54'  
Track history (hours):
 
Tides and Currents Weather Stations Pressure Air Temp Water Temp Dewpoint Dewpoint Depression Visibility Wind Speed Wind Dir Waves Ship Positions

W. O. Watson

Owner: Martin Operating Partnership,LP, Vidor, TX. More information available from US FCC via Universal Licensing System and Coast Guard Vessel Documentation Center.

Last reported at 2016-May-24 04:24 UTC. Time now 2016-May-28 04:05 UTC.
Position N 30°23' W 086°56'.

Length 32 m; draft 2.8 m.

MMSI: 367329860.

Date/timePositionNaut miles runAvg speedWind from/ knotsBaromVisibWave heightAir tempDewpointWater temp
2016-May-24 04:24N 30°23' W 086°56'6 7.1
2016-May-24 03:34N 30°24' W 086°50'8 7.1
2016-May-24 02:27N 30°24' W 086°40'6 6.5
2016-May-24 01:33N 30°24' W 086°34'7 6.8
2016-May-24 00:33N 30°26' W 086°26'7 6.7
2016-May-23 23:33N 30°27' W 086°18'7 2.0
2016-May-23 20:05N 30°27' W 086°10'3 5.2
2016-May-23 19:29N 30°26' W 086°14'5 5.8
2016-May-23 18:33N 30°26' W 086°20'6 5.9
2016-May-23 17:33N 30°26' W 086°27'6 5.8
2016-May-23 16:33N 30°24' W 086°33'7 5.9
2016-May-23 15:22N 30°24' W 086°41'5 6.0
2016-May-23 14:33N 30°24' W 086°47'6 6.1
2016-May-23 13:33N 30°24' W 086°54'  

Dump ship's entire track history